Delray Beach, FL (33444)

5:09 AM EDT on August 26, 2016 (GMT -0400)
Delray Beach | | Change Station

Elev 30 ft 26.47 °N, 80.09 °W | Updated 1 second ago

Partly Cloudy
Partly Cloudy
79.3 °F
Feels Like 84 °F
N
0.0
Wind Variable Wind from SSE
Gusts 0.0 mph

Today
High -- | Low -- °F
--% Chance of Precip.
Yesterday
High -- | Low -- °F
Precip. -- in
Pressure 29.94 in
Visibility 10.0 miles
Clouds Few 2100 ft
Few 2800 ft
Heat Index 84 °F
Dew Point 76 °F
Humidity 89%
Rainfall 0.00 in
Snow Depth Not available.
6:57 AM 7:45 PM
Last Quarter, 36% visible
METAR KPMP 260853Z AUTO 07003KT 10SM FEW021 FEW028 29/26 A2993 RMK AO2 LTG DSNT S AND SW SLP136 T02890256 55002
Pressure 29.94 in
Visibility 10.0 miles
Clouds Few 2100 ft
Few 2800 ft
Heat Index 84 °F
Dew Point 76 °F
Humidity 89%
Rainfall 0.00 in
Snow Depth Not available.
6:57 AM 7:45 PM
Last Quarter, 36% visible
METAR KPMP 260853Z AUTO 07003KT 10SM FEW021 FEW028 29/26 A2993 RMK AO2 LTG DSNT S AND SW SLP136 T02890256 55002

10-Day Weather Forecast

Almanac

Astronomy

Aug. 26, 2016 Rise Set
Actual Time
Civil Twilight
Nautical Twilight
Astronomical Twilight
Moon
Length of Visible Light
Length of Day
Tomorrow will be .
, % of the Moon is Illuminated

Today's Extremes

State Highs State Lows

Community

WunderPhotos

Upload Photos

1,935,062 photos uploaded!

WunderBlog® & News

Nearby

Air Quality

  Air Quality AQ Index Pollutant
Not available.

Snow Depth

Station Depth Elevation

Earthquake Activity

City Distance Mag. Time & Date
Minimum magnitude displayed is 2.5.

Coastal Water Temperatures

Place Temperature

Stations

Nearby Weather Stations

Station Location Temp. Windchill Dew Point Humidity Wind Precip. Elev Updated Type
                   

Watches & Warnings

There are currently no watches in effect.